createdAt,value
2018-11-14T00:03:02.918Z,21.12
2018-11-14T00:06:05.828Z,26.60
2018-11-14T00:09:09.702Z,19.65
2018-11-14T00:12:12.494Z,30.17
2018-11-14T00:15:16.512Z,25.82
2018-11-14T00:18:19.296Z,27.13
2018-11-14T00:21:22.070Z,21.20
2018-11-14T00:24:24.976Z,27.87
2018-11-14T00:27:27.746Z,22.70
2018-11-14T00:30:30.540Z,26.57
2018-11-14T00:33:33.350Z,24.93
2018-11-14T00:36:36.138Z,24.43
2018-11-14T00:39:38.916Z,24.33
2018-11-14T00:42:42.300Z,26.53
2018-11-14T00:45:45.154Z,28.43
2018-11-14T00:48:47.928Z,28.50
2018-11-14T00:51:50.813Z,28.97
2018-11-14T00:54:53.608Z,24.57
2018-11-14T00:57:56.548Z,25.37
2018-11-14T01:00:59.347Z,27.93
2018-11-14T01:04:02.525Z,31.07
2018-11-14T01:07:05.369Z,24.33
2018-11-14T01:10:12.817Z,26.43
2018-11-14T01:13:15.766Z,27.75
2018-11-14T01:16:18.506Z,24.40
2018-11-14T01:19:21.290Z,28.87
2018-11-14T01:22:24.073Z,26.60
2018-11-14T01:25:26.923Z,29.65
2018-11-14T01:28:29.716Z,30.57
2018-11-14T01:31:32.514Z,24.20
2018-11-14T01:34:35.286Z,21.90
2018-11-14T01:37:38.121Z,29.20
2018-11-14T01:40:40.913Z,25.00
2018-11-14T01:43:43.694Z,19.35
2018-11-14T01:46:46.504Z,26.93
2018-11-14T01:49:49.286Z,21.47
2018-11-14T01:52:52.129Z,24.87
2018-11-14T01:55:54.970Z,21.00
2018-11-14T01:58:57.754Z,21.57
2018-11-14T02:02:00.532Z,23.07
2018-11-14T02:05:03.677Z,26.87
2018-11-14T02:08:06.484Z,30.30
2018-11-14T02:11:09.318Z,27.95
2018-11-14T02:14:12.101Z,27.02
2018-11-14T02:17:14.913Z,22.85
2018-11-14T02:20:17.749Z,24.12
2018-11-14T02:23:20.560Z,24.60
2018-11-14T02:26:23.338Z,19.13
2018-11-14T02:29:26.121Z,24.77
2018-11-14T02:32:28.913Z,22.87
2018-11-14T02:35:31.766Z,23.77
2018-11-14T02:38:34.550Z,27.55
2018-11-14T02:41:37.339Z,24.63
2018-11-14T02:44:40.137Z,27.82
2018-11-14T02:47:42.933Z,23.95
2018-11-14T02:50:45.729Z,25.00
2018-11-14T02:53:48.551Z,27.07
2018-11-14T02:56:51.441Z,27.73
2018-11-14T02:59:54.714Z,29.65
2018-11-14T03:02:57.808Z,26.82
2018-11-14T03:06:00.601Z,30.47
2018-11-14T03:09:04.554Z,24.72
2018-11-14T03:12:07.370Z,21.07
2018-11-14T03:15:12.457Z,24.07
2018-11-14T03:18:15.237Z,25.68
2018-11-14T03:21:18.051Z,31.83
2018-11-14T03:24:20.831Z,32.00
2018-11-14T03:27:23.690Z,30.20
2018-11-14T03:30:26.490Z,30.20
2018-11-14T03:33:29.313Z,26.97
2018-11-14T03:36:32.109Z,32.13
2018-11-14T03:39:35.025Z,34.47
2018-11-14T03:42:37.916Z,29.57
2018-11-14T03:45:40.737Z,27.77
2018-11-14T03:48:44.181Z,30.12
2018-11-14T03:51:47.095Z,29.00
2018-11-14T03:54:49.884Z,30.82
2018-11-14T03:57:52.845Z,41.67
2018-11-14T04:00:55.632Z,25.45
2018-11-14T04:03:58.448Z,29.57
2018-11-14T04:07:01.275Z,30.73
2018-11-14T04:10:05.426Z,38.43
2018-11-14T04:13:08.211Z,38.83
2018-11-14T04:16:11.018Z,28.80
2018-11-14T04:19:13.793Z,36.77
2018-11-14T04:22:16.858Z,30.08
2018-11-14T04:25:20.473Z,44.57
2018-11-14T04:28:23.277Z,31.87
2018-11-14T04:31:26.141Z,38.90
2018-11-14T04:34:28.958Z,39.73
2018-11-14T04:37:31.785Z,48.33
2018-11-14T04:40:34.575Z,33.53
2018-11-14T04:43:37.366Z,38.30
2018-11-14T04:46:40.228Z,33.13
2018-11-14T04:49:43.010Z,42.07
2018-11-14T04:52:46.710Z,56.33
2018-11-14T04:55:49.497Z,41.40
2018-11-14T04:58:52.385Z,38.17
2018-11-14T05:01:55.197Z,39.50
2018-11-14T05:04:57.987Z,42.93
2018-11-14T05:08:00.845Z,33.53
2018-11-14T05:11:03.654Z,53.07
2018-11-14T05:14:07.194Z,46.00
2018-11-14T05:17:09.994Z,37.03
2018-11-14T05:20:14.917Z,39.83
2018-11-14T05:23:17.706Z,38.93
2018-11-14T05:26:20.546Z,46.77
2018-11-14T05:29:23.334Z,45.63
2018-11-14T05:32:26.477Z,38.77
2018-11-14T05:35:29.271Z,45.37
2018-11-14T05:38:32.089Z,53.50
2018-11-14T05:41:34.920Z,41.47
2018-11-14T05:44:37.706Z,44.83
2018-11-14T05:47:40.482Z,51.48
2018-11-14T05:50:43.284Z,37.50
2018-11-14T05:53:46.353Z,47.97
2018-11-14T05:56:49.259Z,44.87
2018-11-14T05:59:52.826Z,44.27
2018-11-14T06:02:56.925Z,40.63
2018-11-14T06:06:00.457Z,47.93
2018-11-14T06:09:04.517Z,51.07
2018-11-14T06:12:08.845Z,48.63
2018-11-14T06:15:14.036Z,45.00
2018-11-14T06:18:18.705Z,42.07
2018-11-14T06:21:22.421Z,46.63
2018-11-14T06:24:26.713Z,47.30
2018-11-14T06:27:32.086Z,52.75
2018-11-14T06:30:36.757Z,55.38
2018-11-14T06:33:41.817Z,47.13
2018-11-14T06:36:45.289Z,50.00
2018-11-14T06:39:49.591Z,60.37
2018-11-14T06:42:53.490Z,62.48
2018-11-14T06:45:57.057Z,51.83
2018-11-14T06:49:01.273Z,56.43
2018-11-14T06:52:05.358Z,58.80
2018-11-14T06:55:10.383Z,63.90
2018-11-14T06:58:13.357Z,62.40
2018-11-14T07:01:17.062Z,59.20
2018-11-14T07:04:20.778Z,59.03
2018-11-14T07:07:25.549Z,57.53
2018-11-14T07:10:30.970Z,59.20
2018-11-14T07:13:33.941Z,68.73
2018-11-14T07:16:37.444Z,66.05
2018-11-14T07:19:40.449Z,55.63
2018-11-14T07:22:44.142Z,55.85
2018-11-14T07:25:47.233Z,68.87
2018-11-14T07:28:50.203Z,59.97
2018-11-14T07:31:53.203Z,62.13
2018-11-14T07:34:56.330Z,63.95
2018-11-14T07:39:08.755Z,65.27
2018-11-14T07:42:11.813Z,64.55
2018-11-14T07:45:15.953Z,54.98
2018-11-14T07:48:19.538Z,65.17
2018-11-14T07:51:23.803Z,58.92
2018-11-14T07:54:27.840Z,59.35
2018-11-14T07:57:32.448Z,55.77
2018-11-14T08:00:36.086Z,64.90
2018-11-14T08:03:40.945Z,77.00
2018-11-14T08:06:45.229Z,74.17
2018-11-14T08:09:49.905Z,50.45
2018-11-14T08:12:53.122Z,56.15
2018-11-14T08:15:57.954Z,57.27
2018-11-14T08:19:01.682Z,64.10
2018-11-14T08:22:06.029Z,52.75
2018-11-14T08:25:09.353Z,54.10
2018-11-14T08:28:14.658Z,62.62
2018-11-14T08:31:18.162Z,60.33
2018-11-14T08:34:22.044Z,66.40
2018-11-14T08:37:25.900Z,61.30
2018-11-14T08:40:30.322Z,62.33
2018-11-14T08:43:33.473Z,55.67
2018-11-14T08:46:38.163Z,60.60
2018-11-14T08:49:43.226Z,70.67
2018-11-14T08:52:46.298Z,65.20
2018-11-14T08:55:49.425Z,70.07
2018-11-14T08:58:52.970Z,76.90
2018-11-14T09:01:57.141Z,71.43
2018-11-14T09:05:00.205Z,59.40
2018-11-14T09:08:04.505Z,54.40
2018-11-14T09:11:20.027Z,62.85
2018-11-14T09:14:23.033Z,54.15
2018-11-14T09:17:26.926Z,51.77
2018-11-14T09:20:30.986Z,61.58
2018-11-14T09:23:35.305Z,59.97
2018-11-14T09:26:39.281Z,59.35
2018-11-14T09:29:42.862Z,51.98
2018-11-14T09:32:47.107Z,54.73
2018-11-14T09:35:50.685Z,54.33
2018-11-14T09:38:55.506Z,52.55
2018-11-14T09:41:59.248Z,48.40
2018-11-14T09:45:02.966Z,52.17
2018-11-14T09:48:06.741Z,50.23
2018-11-14T09:51:10.414Z,59.40
2018-11-14T09:54:14.609Z,46.63
2018-11-14T09:57:18.137Z,45.20
2018-11-14T10:00:29.033Z,43.27
2018-11-14T10:03:33.162Z,45.37
2018-11-14T10:06:36.162Z,45.70
2018-11-14T10:09:39.968Z,49.08
2018-11-14T10:12:43.813Z,55.25
2018-11-14T10:15:48.015Z,46.73
2018-11-14T10:18:51.502Z,47.60
2018-11-14T10:21:55.254Z,51.70
2018-11-14T10:24:59.851Z,42.13
2018-11-14T10:28:04.127Z,48.52
2018-11-14T10:31:08.590Z,40.80
2018-11-14T10:34:11.565Z,42.23
2018-11-14T10:37:15.613Z,42.23
2018-11-14T10:40:23.441Z,42.60
2018-11-14T10:43:27.574Z,44.90
2018-11-14T10:46:31.838Z,39.60
2018-11-14T10:49:35.577Z,39.47
2018-11-14T10:52:39.529Z,35.40
2018-11-14T10:55:43.485Z,44.75
2018-11-14T10:58:48.090Z,45.97
2018-11-14T11:01:56.506Z,33.30
2018-11-14T11:05:04.858Z,38.75
2018-11-14T11:08:14.897Z,44.00
2018-11-14T11:12:22.258Z,36.07
2018-11-14T11:15:31.334Z,42.53
2018-11-14T11:18:36.101Z,34.55
2018-11-14T11:21:40.086Z,36.30
2018-11-14T11:24:43.147Z,41.45
2018-11-14T11:27:48.216Z,35.78
2018-11-14T11:30:52.903Z,42.48
2018-11-14T11:33:56.534Z,38.23
2018-11-14T11:36:59.666Z,33.28
2018-11-14T11:40:04.022Z,35.75
2018-11-14T11:43:07.701Z,38.42
2018-11-14T11:46:11.997Z,33.38
2018-11-14T11:49:16.213Z,39.95
2018-11-14T11:52:19.993Z,41.65
2018-11-14T11:55:23.469Z,35.73
2018-11-14T11:58:26.462Z,41.23
2018-11-14T12:01:30.065Z,43.25
2018-11-14T12:04:34.719Z,40.28
2018-11-14T12:07:37.874Z,43.77
2018-11-14T12:10:40.929Z,46.30
2018-11-14T12:13:44.231Z,40.55
2018-11-14T12:16:47.408Z,37.42
2018-11-14T12:19:50.530Z,33.63
2018-11-14T12:22:53.655Z,38.08
2018-11-14T12:25:56.894Z,33.13
2018-11-14T12:29:00.526Z,38.58
2018-11-14T12:32:04.133Z,38.65
2018-11-14T12:35:09.030Z,37.17
2018-11-14T12:38:12.460Z,40.60
2018-11-14T12:41:15.463Z,30.60
2018-11-14T12:44:18.719Z,37.28
2018-11-14T12:47:21.878Z,28.98
2018-11-14T12:50:24.901Z,34.08
2018-11-14T12:53:27.959Z,33.80
2018-11-14T12:56:30.992Z,35.52
2018-11-14T12:59:34.109Z,33.78
2018-11-14T13:02:37.407Z,33.05
2018-11-14T13:05:40.443Z,40.40
2018-11-14T13:08:43.563Z,41.85
2018-11-14T13:11:46.615Z,39.73
2018-11-14T13:14:49.654Z,35.17
2018-11-14T13:17:52.908Z,37.03
2018-11-14T13:20:56.035Z,31.45
2018-11-14T13:23:59.195Z,42.60
2018-11-14T13:27:02.319Z,34.50
2018-11-14T13:30:07.736Z,36.05
2018-11-14T13:33:10.862Z,38.08
2018-11-14T13:36:13.915Z,35.25
2018-11-14T13:39:16.941Z,39.80
2018-11-14T13:42:20.437Z,42.75
2018-11-14T13:45:23.646Z,35.90
2018-11-14T13:48:26.707Z,38.78
2018-11-14T13:51:30.387Z,46.25
2018-11-14T13:54:33.487Z,44.20
2018-11-14T13:57:36.484Z,44.10
2018-11-14T14:00:39.508Z,47.00
2018-11-14T14:03:42.567Z,43.80
2018-11-14T14:06:46.001Z,51.10
2018-11-14T14:09:49.108Z,36.80
2018-11-14T14:12:53.526Z,43.78
2018-11-14T14:15:57.239Z,48.42
2018-11-14T14:19:00.310Z,51.33
2018-11-14T14:22:03.405Z,46.48
2018-11-14T14:25:07.827Z,45.30
2018-11-14T14:28:12.566Z,44.08
2018-11-14T14:31:15.727Z,39.30
2018-11-14T14:34:19.567Z,44.97
2018-11-14T14:37:22.831Z,42.20
2018-11-14T14:40:26.157Z,50.33
2018-11-14T14:43:30.039Z,47.48
2018-11-14T14:46:33.675Z,50.20
2018-11-14T14:49:36.747Z,39.27
2018-11-14T14:52:40.679Z,39.95
2018-11-14T14:55:43.735Z,39.20
2018-11-14T14:58:47.066Z,38.05
2018-11-14T15:01:50.134Z,41.48
2018-11-14T15:04:53.563Z,37.33
2018-11-14T15:07:56.831Z,45.05
2018-11-14T15:11:00.271Z,40.10
2018-11-14T15:14:03.399Z,49.63
2018-11-14T15:17:06.558Z,45.10
2018-11-14T15:20:13.063Z,42.73
2018-11-14T15:23:16.215Z,40.03
2018-11-14T15:26:19.280Z,49.13
2018-11-14T15:29:22.710Z,43.55
2018-11-14T15:32:25.743Z,37.83
2018-11-14T15:35:28.791Z,44.87
2018-11-14T15:38:31.851Z,48.50
2018-11-14T15:41:34.971Z,41.10
2018-11-14T15:44:38.033Z,41.68
2018-11-14T15:47:41.738Z,47.57
2018-11-14T15:50:44.731Z,43.35
2018-11-14T15:53:48.898Z,38.00
2018-11-14T15:56:51.991Z,42.60
2018-11-14T15:59:55.131Z,43.60
2018-11-14T16:02:58.119Z,48.05
2018-11-14T16:06:01.116Z,41.48
2018-11-14T16:09:07.071Z,43.65
2018-11-14T16:12:10.063Z,37.67
2018-11-14T16:15:14.279Z,37.00
2018-11-14T16:18:17.384Z,42.00
2018-11-14T16:21:20.466Z,42.88
2018-11-14T16:24:23.483Z,39.53
2018-11-14T16:27:26.542Z,38.47
2018-11-14T16:30:31.411Z,42.05
2018-11-14T16:33:34.911Z,39.23
2018-11-14T16:36:38.227Z,36.70
2018-11-14T16:39:41.370Z,48.80
2018-11-14T16:42:44.885Z,42.05
2018-11-14T16:45:48.562Z,40.92
2018-11-14T16:48:51.978Z,39.67
2018-11-14T16:51:54.974Z,52.45
2018-11-14T16:54:57.962Z,51.20
2018-11-14T16:58:00.951Z,44.03
2018-11-14T17:01:04.151Z,45.50
2018-11-14T17:04:07.322Z,47.33
2018-11-14T17:07:10.334Z,43.25
2018-11-14T17:10:17.827Z,45.97
2018-11-14T17:13:20.815Z,51.57
2018-11-14T17:16:23.915Z,58.08
2018-11-14T17:19:27.007Z,43.15
2018-11-14T17:22:30.607Z,56.27
2018-11-14T17:25:33.753Z,60.63
2018-11-14T17:28:36.828Z,60.73
2018-11-14T17:31:39.860Z,46.53
2018-11-14T17:34:43.587Z,56.57
2018-11-14T17:37:47.294Z,46.47
2018-11-14T17:40:50.282Z,47.40
2018-11-14T17:43:54.094Z,62.07
2018-11-14T17:46:57.182Z,67.87
2018-11-14T17:50:01.389Z,76.60
2018-11-14T17:53:04.600Z,63.33
2018-11-14T17:56:07.588Z,46.88
2018-11-14T17:59:11.010Z,64.50
2018-11-14T18:02:14.938Z,84.13
2018-11-14T18:05:20.862Z,84.53
2018-11-14T18:08:25.081Z,57.80
2018-11-14T18:11:28.589Z,68.50
2018-11-14T18:14:31.614Z,60.40
2018-11-14T18:17:34.785Z,68.30
2018-11-14T18:20:37.753Z,106.70
2018-11-14T18:23:42.385Z,79.70
2018-11-14T18:26:46.556Z,67.97
2018-11-14T18:29:50.876Z,69.23
2018-11-14T18:32:54.655Z,77.63
2018-11-14T18:35:58.842Z,71.80
2018-11-14T18:39:03.529Z,71.53
2018-11-14T18:42:06.546Z,80.47
2018-11-14T18:45:12.997Z,73.92
2018-11-14T18:48:16.862Z,93.80
2018-11-14T18:51:20.563Z,63.77
2018-11-14T18:54:24.570Z,87.13
2018-11-14T18:57:28.504Z,60.50
2018-11-14T19:00:33.536Z,69.13
2018-11-14T19:03:37.606Z,71.50
2018-11-14T19:06:41.231Z,68.00
2018-11-14T19:09:44.766Z,63.27
2018-11-14T19:12:48.953Z,97.10
2018-11-14T19:15:51.855Z,93.17
2018-11-14T19:18:55.428Z,81.87
2018-11-14T19:21:58.937Z,104.73
2018-11-14T19:25:03.061Z,113.27
2018-11-14T19:28:06.865Z,114.87
2018-11-14T19:31:09.905Z,92.20
2018-11-14T19:34:14.526Z,69.40
2018-11-14T19:37:17.574Z,118.13
2018-11-14T19:40:22.452Z,119.07
2018-11-14T19:43:26.078Z,106.97
2018-11-14T19:46:32.917Z,90.77
2018-11-14T19:49:37.671Z,80.17
2018-11-14T19:52:41.467Z,58.80
2018-11-14T19:55:45.146Z,61.00
2018-11-14T19:58:49.844Z,67.93
2018-11-14T20:01:55.386Z,75.25
2018-11-14T20:04:58.370Z,70.53
2018-11-14T20:08:02.783Z,99.67
2018-11-14T20:11:06.870Z,113.07
2018-11-14T20:14:10.450Z,109.57
2018-11-14T20:17:15.550Z,115.50
2018-11-14T20:20:21.299Z,124.17
2018-11-14T20:23:25.586Z,119.00
2018-11-14T20:26:29.859Z,105.47
2018-11-14T20:29:33.489Z,87.10
2018-11-14T20:32:36.757Z,100.37
2018-11-14T20:35:41.071Z,120.40
2018-11-14T20:38:45.090Z,100.83
2018-11-14T20:41:49.124Z,102.60
2018-11-14T20:44:53.649Z,97.10
2018-11-14T20:47:56.709Z,108.40
2018-11-14T20:51:00.339Z,99.93
2018-11-14T20:54:04.576Z,93.37
2018-11-14T20:57:08.422Z,102.77
2018-11-14T21:00:17.097Z,105.87
2018-11-14T21:03:22.353Z,71.80
2018-11-14T21:06:26.746Z,80.60
2018-11-14T21:09:30.577Z,84.77
2018-11-14T21:12:34.881Z,90.40
2018-11-14T21:15:39.497Z,91.90
2018-11-14T21:18:44.438Z,96.83
2018-11-14T21:21:47.906Z,100.73
2018-11-14T21:24:53.131Z,100.23
2018-11-14T21:27:56.550Z,82.00
2018-11-14T21:31:01.313Z,97.93
2018-11-14T21:34:05.841Z,75.00
2018-11-14T21:37:10.137Z,79.90
2018-11-14T21:40:13.437Z,90.77
2018-11-14T21:43:16.925Z,82.37
2018-11-14T21:46:19.967Z,85.03
2018-11-14T21:49:26.908Z,89.40
2018-11-14T21:52:31.071Z,91.77
2018-11-14T21:55:34.705Z,99.55
2018-11-14T21:58:38.176Z,86.17
2018-11-14T22:01:42.380Z,91.47
2018-11-14T22:04:46.677Z,82.83
2018-11-14T22:07:50.273Z,95.30
2018-11-14T22:10:53.753Z,81.03
2018-11-14T22:13:57.341Z,85.47
2018-11-14T22:17:02.369Z,81.87
2018-11-14T22:20:07.298Z,92.27
2018-11-14T22:23:10.349Z,104.77
2018-11-14T22:26:13.998Z,86.77
2018-11-14T22:29:17.505Z,85.95
2018-11-14T22:32:21.058Z,97.00
2018-11-14T22:35:26.304Z,76.17
2018-11-14T22:38:29.715Z,100.00
2018-11-14T22:41:33.646Z,74.90
2018-11-14T22:44:36.653Z,87.62
2018-11-14T22:47:41.399Z,99.67
2018-11-14T22:50:44.537Z,91.10
2018-11-14T22:53:48.633Z,86.07
2018-11-14T22:56:53.130Z,93.27
2018-11-14T22:59:56.924Z,114.63
2018-11-14T23:03:01.730Z,83.20
2018-11-14T23:06:05.668Z,88.30
2018-11-14T23:09:12.157Z,103.77
2018-11-14T23:12:16.060Z,85.40
2018-11-14T23:15:21.045Z,365.10
2018-11-14T23:18:24.169Z,92.85
2018-11-14T23:21:29.037Z,87.93
2018-11-14T23:24:33.010Z,95.80
2018-11-14T23:27:36.065Z,110.87
2018-11-14T23:30:39.487Z,96.87
2018-11-14T23:33:44.498Z,125.03
2018-11-14T23:36:48.641Z,126.17
2018-11-14T23:39:52.194Z,91.83
2018-11-14T23:42:56.493Z,120.60
2018-11-14T23:46:00.049Z,98.53
2018-11-14T23:49:04.217Z,106.63
2018-11-14T23:52:07.734Z,91.87
2018-11-14T23:55:10.777Z,104.35
2018-11-14T23:58:14.595Z,107.67
